Latest Weather Observations for Shepparton

IDV60801

Issued at 9:12 pm EDT Monday 4 March 2024 (issued every 10 minutes, with the page automatically refreshed every 10 minutes)

About weather observations | Map of weather stations | Latest weather observations for VIC | Other Formats
Station Details ID: 081125 Name: SHEPPARTON AIRPORT Lat: -36.43 Lon: 145.39 Height: 113.9 m
Data from the previous 72 hours. | See also: Recent months at Shepparton
Date/Time
EDT
Temp
°C
App
Temp
°C
Dew
Point
°C
Rel
Hum
%
Delta-T
°C
Wind Press
QNH
hPa
Press
MSL
hPa
Rain since
9am
mm
Dir  Spd
km/h
Gust
km/h
Spd
kts
Gust
kts
04/09:00pm 20.2 17.6 6.2 40 7.0 SSW 9 13 5 7 1017.8 1017.5 0.0
04/08:30pm 20.7 17.6 5.5 37 7.6 SSW 11 13 6 7 1017.6 1017.3 0.0
04/08:00pm 22.9 19.4 5.3 32 8.8 SSW 13 19 7 10 1017.5 1017.2 0.0
04/07:30pm 24.8 20.8 5.1 28 10.0 SSW 15 19 8 10 1017.5 1017.2 0.0
04/07:00pm 26.3 21.9 4.7 25 11.0 SSW 17 22 9 12 1017.4 1017.1 0.0
04/06:30pm 27.6 22.8 4.6 23 11.8 SW 19 26 10 14 1017.7 1017.4 0.0
04/06:00pm 28.2 23.5 3.1 20 12.5 WSW 17 24 9 13 1017.6 1017.3 0.0
04/05:30pm 28.6 23.4 2.7 19 12.9 SW 19 26 10 14 1017.5 1017.2 0.0
04/05:00pm 29.1 24.6 2.4 18 13.3 SW 15 20 8 11 1017.6 1017.3 0.0
04/04:30pm 29.0 24.7 3.1 19 13.0 WSW 15 26 8 14 1017.9 1017.6 0.0
04/04:00pm 28.9 25.3 3.0 19 13.0 SW 11 20 6 11 1018.3 1018.0 0.0
04/03:30pm 28.1 24.8 2.3 19 12.7 SSW 9 20 5 11 1018.8 1018.5 0.0
04/03:00pm 27.8 23.7 2.1 19 12.6 SW 13 24 7 13 1019.4 1019.0 0.0
04/02:30pm 26.8 22.9 1.3 19 12.2 WSW 11 28 6 15 1019.9 1019.5 0.0
04/02:00pm 25.8 22.3 1.2 20 11.7 WSW 9 20 5 11 1020.3 1019.9 0.0
04/01:30pm 25.1 20.9 -0.9 18 11.8 SW 11 15 6 8 1020.6 1020.2 0.0
04/01:00pm 24.5 21.2 2.6 24 10.6 WSW 9 15 5 8 1021.0 1020.6 0.0
04/12:30pm 23.2 18.6 1.5 24 10.2 SW 15 20 8 11 1021.3 1020.9 0.0
04/12:00pm 22.6 18.5 4.6 31 8.9 WSW 15 20 8 11 1021.7 1021.4 0.0
04/11:30am 21.5 17.7 3.7 31 8.6 S 13 20 7 11 1021.8 1021.5 0.0
04/11:00am 20.0 16.2 4.1 35 7.6 S 13 17 7 9 1021.9 1021.6 0.0
04/10:30am 18.4 14.3 4.2 39 6.8 SSE 15 20 8 11 1022.0 1021.7 0.0
04/10:00am 17.2 12.9 5.2 45 5.8 SSE 17 24 9 13 1021.8 1021.5 0.0
04/09:30am 15.8 11.0 5.7 51 4.9 S 20 30 11 16 1021.8 1021.5 0.0
04/09:00am 14.5 9.4 6.1 57 4.0 S 22 33 12 18 1021.6 1021.2 0.0
04/08:30am 13.4 7.5 6.0 61 3.5 S 26 37 14 20 1021.1 1020.7 0.0
04/08:00am 12.5 8.0 6.3 66 2.9 S 19 24 10 13 1021.1 1020.7 0.0
04/07:30am 11.8 7.2 6.3 69 2.6 S 20 28 11 15 1021.1 1020.7 0.0
04/07:00am 11.4 6.9 6.3 71 2.4 S 19 32 10 17 1021.0 1020.6 0.0
04/06:30am 11.5 6.9 6.4 71 2.4 S 20 30 11 16 1020.8 1020.4 0.0
04/06:00am 11.5 7.1 6.4 71 2.4 S 19 28 10 15 1020.7 1020.3 0.0
04/05:30am 11.6 7.5 6.3 70 2.5 S 17 26 9 14 1020.9 1020.5 0.0
04/05:00am 12.3 7.6 6.1 66 2.9 SSW 20 28 11 15 1020.8 1020.4 0.0
04/04:30am 12.3 6.4 5.9 65 3.0 SSW 26 35 14 19 1020.0 1019.6 0.0
04/04:00am 12.4 6.9 6.0 65 3.0 SSW 24 32 13 17 1020.0 1019.6 0.0
04/03:30am 12.3 8.6 6.1 66 2.9 S 15 20 8 11 1020.3 1019.9 0.0
04/03:00am 12.7 8.2 6.3 65 3.0 S 19 32 10 17 1019.9 1019.5 0.0
04/02:30am 13.1 8.1 6.5 64 3.2 S 22 32 12 17 1020.0 1019.6 0.0
04/02:00am 13.3 8.7 6.6 64 3.2 S 20 30 11 16 1020.2 1019.8 0.0
04/01:30am 13.7 8.4 7.0 64 3.3 S 24 32 13 17 1020.2 1019.8 0.0
04/01:00am 14.0 9.2 7.3 64 3.3 S 22 32 12 17 1020.3 1019.9 0.0
04/12:30am 14.2 9.8 7.3 63 3.4 SSE 20 28 11 15 1020.5 1020.1 0.0
04/12:00am 14.6 8.7 7.4 62 3.6 S 28 43 15 23 1020.6 1020.2 0.0
 
Date/Time
EDT
Temp
°C
App
Temp
°C
Dew
Point
°C
Rel
Hum
%
Delta-T
°C
Wind Press
QNH
hPa
Press
MSL
hPa
Rain since
9am
mm
Dir  Spd
km/h
Gust
km/h
Spd
kts
Gust
kts
03/11:30pm 15.0 9.2 7.8 62 3.6 S 28 39 15 21 1020.7 1020.3 0.0
03/11:00pm 15.4 11.2 8.4 63 3.5 S 20 32 11 17 1020.8 1020.4 0.0
03/10:30pm 16.2 10.6 8.7 61 3.9 SSW 28 41 15 22 1020.7 1020.3 0.0
03/10:08pm 16.6 11.0 8.8 60 4.0 S 28 46 15 25 1020.4 1020.0 0.0
03/10:00pm 16.8 11.3 9.0 60 4.0 S 28 44 15 24 1020.4 1020.0 0.0
03/09:30pm 17.5 12.5 9.7 60 4.1 S 26 44 14 24 1020.3 1019.9 0.0
03/09:00pm 18.6 13.9 9.4 55 4.9 S 24 33 13 18 1019.5 1019.1 0.0
03/08:30pm 19.4 15.0 9.0 51 5.5 S 22 33 12 18 1019.3 1018.9 0.0
03/08:00pm 20.2 15.7 8.5 47 6.1 SSW 22 32 12 17 1018.6 1018.3 0.0
03/07:30pm 21.1 16.8 8.0 43 6.9 SSW 20 32 11 17 1018.1 1017.8 0.0
03/07:00pm 22.0 17.8 8.2 41 7.3 SSW 20 28 11 15 1017.8 1017.5 0.0
03/06:30pm 22.4 17.3 7.8 39 7.7 SSW 24 33 13 18 1017.8 1017.5 0.0
03/06:00pm 22.9 17.3 8.6 40 7.6 S 28 41 15 22 1017.6 1017.3 0.0
03/05:30pm 23.3 17.3 8.6 39 7.9 S 30 41 16 22 1017.3 1017.0 0.0
03/05:00pm 24.1 17.5 8.5 37 8.4 S 33 46 18 25 1016.9 1016.6 0.0
03/04:30pm 24.9 18.7 9.2 37 8.6 SSW 32 43 17 23 1016.9 1016.6 0.0
03/04:09pm 25.0 18.6 8.5 35 8.9 SSW 32 52 17 28 1016.8 1016.5 0.0
03/04:00pm 25.1 18.7 8.6 35 8.9 SW 32 44 17 24 1016.8 1016.5 0.0
03/03:30pm 24.5 18.7 8.0 35 8.8 SSW 28 41 15 22 1016.7 1016.4 0.0
03/03:00pm 24.4 18.2 8.0 35 8.7 SW 30 39 16 21 1016.8 1016.5 0.0
03/02:30pm 24.0 17.8 8.0 36 8.5 SW 30 41 16 22 1017.0 1016.7 0.0
03/02:00pm 24.6 20.2 9.0 37 8.5 SW 22 35 12 19 1016.9 1016.6 0.0
03/01:30pm 23.3 18.5 7.4 36 8.3 SW 22 33 12 18 1017.3 1017.0 0.0
03/01:00pm 22.4 17.2 7.4 38 7.8 SSW 24 37 13 20 1017.5 1017.2 0.0
03/12:30pm 21.7 16.3 7.9 41 7.2 SSW 26 39 14 21 1017.7 1017.4 0.0
03/12:00pm 20.8 16.0 7.4 42 6.9 SW 22 32 12 17 1017.8 1017.5 0.0
03/11:30am 20.2 15.2 7.9 45 6.4 SW 24 35 13 19 1018.0 1017.7 0.0
03/11:00am 19.1 15.4 9.3 53 5.2 SSW 19 28 10 15 1018.0 1017.7 0.0
03/10:30am 17.8 14.0 9.2 57 4.5 SW 19 26 10 14 1017.8 1017.5 0.0
03/10:00am 17.2 13.5 9.4 60 4.1 SSW 19 24 10 13 1017.6 1017.3 0.0
03/09:30am 16.0 13.0 9.2 64 3.5 SSW 15 20 8 11 1017.5 1017.2 0.0
03/09:00am 14.6 11.3 9.6 72 2.6 SSW 17 20 9 11 1017.4 1017.1 0.0
03/08:30am 13.1 10.2 9.5 79 1.8 SW 15 20 8 11 1017.2 1016.9 0.0
03/08:00am 11.4 9.8 10.1 92 0.7 SW 9 11 5 6 1016.9 1016.6 0.0
03/07:30am 9.8 8.4 8.9 94 0.4 SW 6 7 3 4 1016.6 1016.3 0.0
03/07:00am 10.2 7.8 8.6 90 0.8 SW 11 17 6 9 1016.2 1015.9 0.0
03/06:30am 11.1 8.4 8.8 86 1.1 SSW 13 19 7 10 1016.1 1015.8 0.0
03/06:00am 11.2 8.7 8.4 83 1.4 SSW 11 15 6 8 1015.8 1015.5 0.0
03/05:30am 12.0 8.1 8.7 80 1.6 SSW 19 26 10 14 1015.6 1015.3 0.0
03/05:00am 12.2 8.7 8.7 79 1.8 SSW 17 24 9 13 1015.2 1014.9 0.0
03/04:30am 12.5 8.9 8.4 76 2.0 SSW 17 24 9 13 1015.2 1014.9 0.0
03/04:00am 13.0 9.1 8.5 74 2.3 SSW 19 26 10 14 1015.3 1015.0 0.0
03/03:30am 13.2 9.3 8.5 73 2.4 SSW 19 28 10 15 1015.4 1015.1 0.0
03/03:00am 13.7 9.5 8.1 69 2.8 SSW 20 26 11 14 1015.4 1015.1 0.0
03/02:30am 13.6 9.4 8.4 71 2.6 SSW 20 28 11 15 1015.5 1015.2 0.0
03/02:00am 13.4 9.5 8.5 72 2.5 SW 19 24 10 13 1015.6 1015.3 0.0
03/01:30am 13.2 10.0 8.3 72 2.4 SW 15 20 8 11 1015.9 1015.6 0.0
03/01:00am 14.1 10.4 8.1 67 3.0 SW 17 22 9 12 1015.9 1015.6 0.0
03/12:30am 14.6 10.9 7.9 64 3.4 SW 17 24 9 13 1016.0 1015.7 0.0
03/12:00am 15.4 11.3 7.9 61 3.8 SSW 19 30 10 16 1016.2 1015.9 0.0
 
Date/Time
EDT
Temp
°C
App
Temp
°C
Dew
Point
°C
Rel
Hum
%
Delta-T
°C
Wind Press
QNH
hPa
Press
MSL
hPa
Rain since
9am
mm
Dir  Spd
km/h
Gust
km/h
Spd
kts
Gust
kts
02/11:30pm 15.8 11.5 7.8 59 4.0 SSW 20 28 11 15 1016.2 1015.9 0.0
02/11:00pm 16.4 12.2 7.6 56 4.4 SSW 19 30 10 16 1016.3 1016.0 0.0
02/10:30pm 17.0 12.6 7.4 53 4.8 SSW 20 30 11 16 1016.4 1016.1 0.0
02/10:00pm 17.4 12.6 7.5 52 5.0 SSW 22 30 12 16 1016.6 1016.3 0.0
02/09:30pm 17.6 13.6 8.2 54 4.8 SSW 19 28 10 15 1016.4 1016.1 0.0
02/09:00pm 18.5 14.4 8.7 53 5.1 SSW 20 30 11 16 1016.1 1015.8 0.0
02/08:30pm 19.0 15.0 8.9 52 5.3 SW 20 28 11 15 1015.9 1015.6 0.0
02/08:00pm 19.9 15.9 8.9 49 5.8 SW 20 28 11 15 1015.6 1015.3 0.0
02/07:30pm 21.2 16.4 8.8 45 6.6 SW 24 33 13 18 1015.5 1015.2 0.0
02/07:00pm 22.6 17.4 8.7 41 7.4 SSW 26 35 14 19 1015.3 1015.0 0.0
02/06:30pm 23.6 17.8 8.1 37 8.2 SSW 28 41 15 22 1015.1 1014.8 0.0
02/06:00pm 24.6 18.4 7.7 34 9.0 SSW 30 41 16 22 1014.8 1014.5 0.0
02/05:30pm 25.1 19.3 8.1 34 9.1 SSW 28 37 15 20 1014.8 1014.5 0.0
02/05:10pm 25.3 19.8 9.2 36 8.8 SSW 28 46 15 25 1014.7 1014.4 0.0
02/05:00pm 25.5 20.0 9.3 36 8.9 SSW 28 35 15 19 1014.8 1014.5 0.0
02/04:30pm 25.4 19.8 8.8 35 9.0 SSW 28 39 15 21 1014.8 1014.5 0.0
02/04:00pm 25.5 20.0 9.3 36 8.9 SSW 28 43 15 23 1014.7 1014.4 0.0
02/03:30pm 26.0 21.2 10.2 37 8.8 SSW 26 37 14 20 1014.8 1014.5 0.0
02/03:00pm 25.4 20.8 9.7 37 8.7 SSW 24 33 13 18 1015.1 1014.8 0.0
02/02:30pm 25.1 20.2 9.8 38 8.5 SW 26 35 14 19 1015.4 1015.1 0.0
02/02:00pm 25.1 20.4 10.6 40 8.1 SSW 26 39 14 21 1015.7 1015.4 0.0
02/01:30pm 24.7 19.8 11.3 43 7.6 SSW 28 37 15 20 1015.8 1015.5 0.0
02/01:00pm 24.4 18.7 11.0 43 7.5 SSW 32 52 17 28 1016.0 1015.7 0.0
02/12:54pm 23.6 18.1 10.6 44 7.2 SSW 30 52 16 28 1016.1 1015.8 0.0
02/12:30pm 23.6 18.8 11.6 47 6.8 S 28 43 15 23 1016.2 1015.9 0.0
02/12:00pm 23.0 18.0 10.8 46 6.8 SSW 28 39 15 21 1016.4 1016.1 0.0
02/11:30am 22.9 17.7 11.6 49 6.4 SSW 30 39 16 21 1016.6 1016.3 0.0
02/11:00am 22.8 18.5 12.1 51 6.1 SSW 26 37 14 20 1016.3 1016.0 0.0
02/10:30am 21.3 17.0 12.2 56 5.1 S 26 35 14 19 1016.1 1015.8 0.0
02/10:00am 19.9 15.9 11.9 60 4.5 S 24 33 13 18 1015.7 1015.4 0.0
02/09:30am 19.3 15.8 12.1 63 4.0 SSW 22 32 12 17 1015.9 1015.6 0.0
02/09:00am 18.3 15.3 12.5 69 3.2 SSW 20 28 11 15 1016.0 1015.7 0.0
02/08:30am 16.7 14.1 12.0 74 2.6 SSW 17 24 9 13 1015.6 1015.3 0.0
02/08:00am 16.4 13.8 12.0 75 2.4 SSW 17 22 9 12 1015.3 1015.0 0.0
02/07:30am 15.7 14.0 12.3 80 1.9 SW 13 15 7 8 1015.0 1014.7 0.0
02/07:00am 16.1 14.4 12.3 78 2.1 SSW 13 19 7 10 1014.5 1014.2 0.0
02/06:30am 16.4 14.2 12.2 76 2.3 SSW 15 20 8 11 1014.4 1014.1 0.0
02/06:00am 16.7 14.2 12.3 75 2.4 SSW 17 24 9 13 1013.8 1013.4 0.0
02/05:30am 16.7 14.2 12.3 75 2.4 SSW 17 26 9 14 1013.4 1013.0 0.0
02/05:00am 16.8 13.8 12.1 74 2.6 SSW 19 26 10 14 1013.2 1012.8 0.0
02/04:30am 16.9 13.9 12.0 73 2.7 SSW 19 26 10 14 1013.0 1012.6 0.0
02/04:00am 17.0 13.7 11.7 71 2.9 SSW 20 35 11 19 1012.9 1012.5 0.0
02/03:30am 17.4 13.8 11.7 69 3.1 SSW 22 32 12 17 1012.9 1012.5 0.0
02/03:00am 17.6 13.9 11.4 67 3.4 SSW 22 33 12 18 1012.7 1012.3 0.0
02/02:30am 17.9 14.4 12.1 69 3.2 SSW 22 33 12 18 1012.7 1012.3 0.0
02/02:00am 18.3 15.1 13.2 72 2.9 SSW 22 28 12 15 1012.7 1012.3 0.0
02/01:30am 18.4 15.8 13.7 74 2.7 SSW 20 30 11 16 1012.7 1012.3 0.0
02/01:00am 18.5 16.2 14.0 75 2.6 SSW 19 28 10 15 1012.4 1012.0 0.0
02/12:30am 18.9 17.8 14.4 75 2.6 SSW 13 20 7 11 1012.1 1011.7 0.0
02/12:00am 19.4 17.0 14.4 73 2.9 SW 20 30 11 16 1012.0 1011.6 0.0
 
Date/Time
EDT
Temp
°C
App
Temp
°C
Dew
Point
°C
Rel
Hum
%
Delta-T
°C
Wind Press
QNH
hPa
Press
MSL
hPa
Rain since
9am
mm
Dir  Spd
km/h
Gust
km/h
Spd
kts
Gust
kts
01/11:30pm 20.7 19.0 14.6 68 3.6 SSW 17 22 9 12 1011.9 1011.5 0.0
01/11:00pm 22.2 20.3 14.3 61 4.7 SSW 17 24 9 13 1012.0 1011.6 0.0
01/10:30pm 23.7 22.4 14.7 57 5.4 SW 15 26 8 14 1011.7 1011.3 0.0
01/10:00pm 22.1 23.5 15.5 66 4.0 E 2 7 1 4 1011.3 1010.9 0.0
01/09:30pm 22.1 24.0 15.7 67 3.9 CALM 0 0 0 0 1011.4 1011.0 0.0

Other formats

Comma delimited format used in spreadsheet applications
http://www.bom.gov.au/fwo/IDV60801/IDV60801.94875.axf

JavaScript Object Notation format (JSON) in row-major order
http://www.bom.gov.au/fwo/IDV60801/IDV60801.94875.json

Data quality

Most of these data are generated automatically and are frequently updated. Quality checks on data are not normally performed. It is possible for incorrect values to appear. Refer to information at About Latest Weather Observations and please check the disclaimer before using these data.